sensor_id;sensor_type;location;lat;lon;timestamp;P1;durP1;ratioP1;P2;durP2;ratioP2
9208;SDS011;4639;48.862;9.188;2023-04-03T00:02:16;2.60;;;2.40;;
9208;SDS011;4639;48.862;9.188;2023-04-03T00:04:42;4.28;;;2.35;;
9208;SDS011;4639;48.862;9.188;2023-04-03T00:07:07;3.00;;;2.42;;
9208;SDS011;4639;48.862;9.188;2023-04-03T00:09:33;5.82;;;2.90;;
9208;SDS011;4639;48.862;9.188;2023-04-03T00:11:59;3.55;;;2.38;;
9208;SDS011;4639;48.862;9.188;2023-04-03T00:14:27;3.72;;;2.50;;
9208;SDS011;4639;48.862;9.188;2023-04-03T00:16:53;2.78;;;2.38;;
9208;SDS011;4639;48.862;9.188;2023-04-03T00:19:18;2.78;;;2.28;;
9208;SDS011;4639;48.862;9.188;2023-04-03T00:21:44;2.55;;;2.35;;
9208;SDS011;4639;48.862;9.188;2023-04-03T00:24:10;5.03;;;2.70;;
9208;SDS011;4639;48.862;9.188;2023-04-03T00:26:36;3.00;;;2.58;;
9208;SDS011;4639;48.862;9.188;2023-04-03T00:29:04;4.05;;;2.75;;
9208;SDS011;4639;48.862;9.188;2023-04-03T00:31:29;3.92;;;2.78;;
9208;SDS011;4639;48.862;9.188;2023-04-03T00:33:55;2.83;;;2.50;;
9208;SDS011;4639;48.862;9.188;2023-04-03T00:36:20;3.45;;;2.50;;
9208;SDS011;4639;48.862;9.188;2023-04-03T00:38:46;3.97;;;2.65;;
9208;SDS011;4639;48.862;9.188;2023-04-03T00:41:11;3.53;;;2.90;;
9208;SDS011;4639;48.862;9.188;2023-04-03T00:43:37;3.97;;;2.60;;
9208;SDS011;4639;48.862;9.188;2023-04-03T00:46:03;4.25;;;2.67;;
9208;SDS011;4639;48.862;9.188;2023-04-03T00:48:31;2.90;;;2.38;;
9208;SDS011;4639;48.862;9.188;2023-04-03T00:51:19;5.38;;;2.97;;
9208;SDS011;4639;48.862;9.188;2023-04-03T00:53:50;3.97;;;2.78;;
9208;SDS011;4639;48.862;9.188;2023-04-03T00:56:19;3.67;;;2.67;;
9208;SDS011;4639;48.862;9.188;2023-04-03T00:58:49;5.38;;;2.65;;
9208;SDS011;4639;48.862;9.188;2023-04-03T01:01:22;3.67;;;2.50;;
9208;SDS011;4639;48.862;9.188;2023-04-03T01:03:53;4.95;;;2.90;;
9208;SDS011;4639;48.862;9.188;2023-04-03T01:06:35;4.30;;;2.50;;
9208;SDS011;4639;48.862;9.188;2023-04-03T01:09:05;4.30;;;2.63;;
9208;SDS011;4639;48.862;9.188;2023-04-03T01:11:31;4.82;;;2.92;;
9208;SDS011;4639;48.862;9.188;2023-04-03T01:13:56;5.47;;;2.50;;
9208;SDS011;4639;48.862;9.188;2023-04-03T01:16:22;3.25;;;2.72;;
9208;SDS011;4639;48.862;9.188;2023-04-03T01:18:48;4.43;;;2.60;;
9208;SDS011;4639;48.862;9.188;2023-04-03T01:26:35;3.00;;;2.70;;
9208;SDS011;4639;48.862;9.188;2023-04-03T01:29:01;5.25;;;3.00;;
9208;SDS011;4639;48.862;9.188;2023-04-03T01:34:12;4.00;;;2.90;;
9208;SDS011;4639;48.862;9.188;2023-04-03T01:36:38;3.78;;;2.75;;
9208;SDS011;4639;48.862;9.188;2023-04-03T01:39:03;2.80;;;2.60;;
9208;SDS011;4639;48.862;9.188;2023-04-03T01:41:29;3.40;;;2.42;;
9208;SDS011;4639;48.862;9.188;2023-04-03T01:43:55;2.92;;;2.63;;
9208;SDS011;4639;48.862;9.188;2023-04-03T01:46:21;4.75;;;3.10;;
9208;SDS011;4639;48.862;9.188;2023-04-03T01:48:48;3.78;;;3.03;;
9208;SDS011;4639;48.862;9.188;2023-04-03T01:51:13;3.70;;;2.80;;
9208;SDS011;4639;48.862;9.188;2023-04-03T01:53:39;3.08;;;2.50;;
9208;SDS011;4639;48.862;9.188;2023-04-03T01:56:05;2.95;;;2.65;;
9208;SDS011;4639;48.862;9.188;2023-04-03T01:58:31;3.92;;;3.13;;
9208;SDS011;4639;48.862;9.188;2023-04-03T02:00:57;2.90;;;2.45;;
9208;SDS011;4639;48.862;9.188;2023-04-03T02:03:22;3.38;;;2.75;;
9208;SDS011;4639;48.862;9.188;2023-04-03T02:05:48;4.63;;;2.83;;
9208;SDS011;4639;48.862;9.188;2023-04-03T02:08:15;3.25;;;2.92;;
9208;SDS011;4639;48.862;9.188;2023-04-03T02:10:42;3.75;;;2.78;;
9208;SDS011;4639;48.862;9.188;2023-04-03T02:13:09;5.70;;;3.08;;
9208;SDS011;4639;48.862;9.188;2023-04-03T02:15:37;3.58;;;2.55;;
9208;SDS011;4639;48.862;9.188;2023-04-03T02:18:03;3.85;;;2.60;;
9208;SDS011;4639;48.862;9.188;2023-04-03T02:20:29;5.63;;;2.70;;
9208;SDS011;4639;48.862;9.188;2023-04-03T02:22:54;4.30;;;2.45;;
9208;SDS011;4639;48.862;9.188;2023-04-03T02:25:20;2.75;;;2.55;;
9208;SDS011;4639;48.862;9.188;2023-04-03T02:27:46;3.20;;;2.70;;
9208;SDS011;4639;48.862;9.188;2023-04-03T02:30:17;4.07;;;2.60;;
9208;SDS011;4639;48.862;9.188;2023-04-03T02:32:43;4.18;;;2.40;;
9208;SDS011;4639;48.862;9.188;2023-04-03T02:35:09;5.20;;;2.80;;
9208;SDS011;4639;48.862;9.188;2023-04-03T02:37:36;4.78;;;2.30;;
9208;SDS011;4639;48.862;9.188;2023-04-03T02:40:02;4.72;;;2.88;;
9208;SDS011;4639;48.862;9.188;2023-04-03T02:42:29;2.90;;;2.20;;
9208;SDS011;4639;48.862;9.188;2023-04-03T02:44:55;2.92;;;2.35;;
9208;SDS011;4639;48.862;9.188;2023-04-03T02:47:20;3.33;;;2.20;;
9208;SDS011;4639;48.862;9.188;2023-04-03T02:49:46;2.78;;;2.42;;
9208;SDS011;4639;48.862;9.188;2023-04-03T02:52:12;2.40;;;2.17;;
9208;SDS011;4639;48.862;9.188;2023-04-03T02:54:38;4.13;;;2.20;;
9208;SDS011;4639;48.862;9.188;2023-04-03T02:57:04;2.75;;;2.45;;
9208;SDS011;4639;48.862;9.188;2023-04-03T02:59:30;3.03;;;2.15;;
9208;SDS011;4639;48.862;9.188;2023-04-03T03:01:56;2.75;;;2.33;;
9208;SDS011;4639;48.862;9.188;2023-04-03T03:04:21;2.40;;;2.20;;
9208;SDS011;4639;48.862;9.188;2023-04-03T03:06:50;3.47;;;2.55;;
9208;SDS011;4639;48.862;9.188;2023-04-03T03:09:15;2.28;;;2.08;;
9208;SDS011;4639;48.862;9.188;2023-04-03T03:14:18;2.95;;;2.30;;
9208;SDS011;4639;48.862;9.188;2023-04-03T03:16:43;3.80;;;2.42;;
9208;SDS011;4639;48.862;9.188;2023-04-03T03:19:09;4.05;;;2.40;;
9208;SDS011;4639;48.862;9.188;2023-04-03T03:21:35;3.42;;;2.55;;
9208;SDS011;4639;48.862;9.188;2023-04-03T03:24:00;4.68;;;2.58;;
9208;SDS011;4639;48.862;9.188;2023-04-03T03:26:26;3.50;;;2.50;;
9208;SDS011;4639;48.862;9.188;2023-04-03T03:28:52;5.40;;;2.60;;
9208;SDS011;4639;48.862;9.188;2023-04-03T03:31:17;4.72;;;2.60;;
9208;SDS011;4639;48.862;9.188;2023-04-03T03:33:50;2.88;;;2.28;;
9208;SDS011;4639;48.862;9.188;2023-04-03T03:36:16;4.28;;;2.40;;
9208;SDS011;4639;48.862;9.188;2023-04-03T03:38:41;5.53;;;2.90;;
9208;SDS011;4639;48.862;9.188;2023-04-03T03:41:07;2.50;;;2.20;;
9208;SDS011;4639;48.862;9.188;2023-04-03T03:43:33;3.58;;;2.15;;
9208;SDS011;4639;48.862;9.188;2023-04-03T03:45:58;6.15;;;2.25;;
9208;SDS011;4639;48.862;9.188;2023-04-03T03:48:24;3.88;;;2.10;;
9208;SDS011;4639;48.862;9.188;2023-04-03T03:50:50;2.33;;;2.13;;
9208;SDS011;4639;48.862;9.188;2023-04-03T03:53:15;3.20;;;2.25;;
9208;SDS011;4639;48.862;9.188;2023-04-03T03:55:41;3.83;;;2.53;;
9208;SDS011;4639;48.862;9.188;2023-04-03T03:58:07;4.18;;;2.45;;
9208;SDS011;4639;48.862;9.188;2023-04-03T04:00:32;2.67;;;2.33;;
9208;SDS011;4639;48.862;9.188;2023-04-03T04:02:58;2.38;;;2.00;;
9208;SDS011;4639;48.862;9.188;2023-04-03T04:05:24;2.97;;;2.35;;
9208;SDS011;4639;48.862;9.188;2023-04-03T04:07:50;2.92;;;2.20;;
9208;SDS011;4639;48.862;9.188;2023-04-03T04:10:15;4.63;;;2.38;;
9208;SDS011;4639;48.862;9.188;2023-04-03T04:12:41;3.42;;;2.65;;
9208;SDS011;4639;48.862;9.188;2023-04-03T04:15:07;4.43;;;2.70;;
9208;SDS011;4639;48.862;9.188;2023-04-03T04:17:34;4.78;;;2.58;;
9208;SDS011;4639;48.862;9.188;2023-04-03T04:20:00;5.32;;;2.50;;
9208;SDS011;4639;48.862;9.188;2023-04-03T04:22:26;4.20;;;2.33;;
9208;SDS011;4639;48.862;9.188;2023-04-03T04:24:51;5.38;;;2.65;;
9208;SDS011;4639;48.862;9.188;2023-04-03T04:27:17;3.63;;;2.50;;
9208;SDS011;4639;48.862;9.188;2023-04-03T04:29:42;4.05;;;2.40;;
9208;SDS011;4639;48.862;9.188;2023-04-03T04:32:08;3.28;;;2.67;;
9208;SDS011;4639;48.862;9.188;2023-04-03T04:34:34;2.67;;;2.10;;
9208;SDS011;4639;48.862;9.188;2023-04-03T04:37:02;2.67;;;2.45;;
9208;SDS011;4639;48.862;9.188;2023-04-03T04:39:30;3.00;;;2.40;;
9208;SDS011;4639;48.862;9.188;2023-04-03T04:41:56;3.58;;;3.08;;
9208;SDS011;4639;48.862;9.188;2023-04-03T04:44:21;2.88;;;2.58;;
9208;SDS011;4639;48.862;9.188;2023-04-03T04:46:47;3.97;;;2.13;;
9208;SDS011;4639;48.862;9.188;2023-04-03T04:49:12;2.92;;;2.33;;
9208;SDS011;4639;48.862;9.188;2023-04-03T04:51:38;3.33;;;2.33;;
9208;SDS011;4639;48.862;9.188;2023-04-03T04:54:03;3.80;;;2.40;;
9208;SDS011;4639;48.862;9.188;2023-04-03T04:56:29;4.43;;;2.10;;
9208;SDS011;4639;48.862;9.188;2023-04-03T04:58:55;4.95;;;2.20;;
9208;SDS011;4639;48.862;9.188;2023-04-03T05:01:20;3.28;;;2.10;;
9208;SDS011;4639;48.862;9.188;2023-04-03T05:03:46;3.25;;;2.53;;
9208;SDS011;4639;48.862;9.188;2023-04-03T05:06:12;4.90;;;2.70;;
9208;SDS011;4639;48.862;9.188;2023-04-03T05:08:38;2.47;;;2.22;;
9208;SDS011;4639;48.862;9.188;2023-04-03T05:11:04;2.80;;;2.22;;
9208;SDS011;4639;48.862;9.188;2023-04-03T05:13:29;5.68;;;2.70;;
9208;SDS011;4639;48.862;9.188;2023-04-03T05:15:55;3.95;;;2.20;;
9208;SDS011;4639;48.862;9.188;2023-04-03T05:18:20;5.63;;;2.45;;
9208;SDS011;4639;48.862;9.188;2023-04-03T05:20:47;3.22;;;2.15;;
9208;SDS011;4639;48.862;9.188;2023-04-03T05:23:14;3.58;;;2.20;;
9208;SDS011;4639;48.862;9.188;2023-04-03T05:25:40;3.63;;;2.60;;
9208;SDS011;4639;48.862;9.188;2023-04-03T05:28:06;4.10;;;2.20;;
9208;SDS011;4639;48.862;9.188;2023-04-03T05:30:32;4.32;;;2.28;;
9208;SDS011;4639;48.862;9.188;2023-04-03T05:32:58;2.58;;;2.25;;
9208;SDS011;4639;48.862;9.188;2023-04-03T05:35:24;5.13;;;2.55;;
9208;SDS011;4639;48.862;9.188;2023-04-03T05:37:50;3.70;;;2.50;;
9208;SDS011;4639;48.862;9.188;2023-04-03T05:40:15;2.60;;;2.05;;
9208;SDS011;4639;48.862;9.188;2023-04-03T05:42:41;4.68;;;2.38;;
9208;SDS011;4639;48.862;9.188;2023-04-03T05:45:07;6.15;;;2.70;;
9208;SDS011;4639;48.862;9.188;2023-04-03T05:47:33;3.17;;;2.40;;
9208;SDS011;4639;48.862;9.188;2023-04-03T05:49:58;7.50;;;2.60;;
9208;SDS011;4639;48.862;9.188;2023-04-03T05:52:31;3.67;;;2.45;;
9208;SDS011;4639;48.862;9.188;2023-04-03T05:55:00;4.13;;;2.65;;
9208;SDS011;4639;48.862;9.188;2023-04-03T05:57:26;5.72;;;2.78;;
9208;SDS011;4639;48.862;9.188;2023-04-03T05:59:51;4.97;;;2.78;;
9208;SDS011;4639;48.862;9.188;2023-04-03T06:02:18;4.82;;;2.53;;
9208;SDS011;4639;48.862;9.188;2023-04-03T06:04:45;5.35;;;2.60;;
9208;SDS011;4639;48.862;9.188;2023-04-03T06:07:13;4.55;;;2.50;;
9208;SDS011;4639;48.862;9.188;2023-04-03T06:09:41;3.95;;;2.15;;
9208;SDS011;4639;48.862;9.188;2023-04-03T06:12:07;3.10;;;2.30;;
9208;SDS011;4639;48.862;9.188;2023-04-03T06:14:33;3.10;;;2.30;;
9208;SDS011;4639;48.862;9.188;2023-04-03T06:16:59;4.47;;;2.47;;
9208;SDS011;4639;48.862;9.188;2023-04-03T06:19:25;2.97;;;2.42;;
9208;SDS011;4639;48.862;9.188;2023-04-03T06:21:50;3.85;;;2.85;;
9208;SDS011;4639;48.862;9.188;2023-04-03T06:24:16;4.20;;;2.40;;
9208;SDS011;4639;48.862;9.188;2023-04-03T06:26:43;5.35;;;3.13;;
9208;SDS011;4639;48.862;9.188;2023-04-03T06:29:08;4.35;;;2.90;;
9208;SDS011;4639;48.862;9.188;2023-04-03T06:31:34;5.05;;;2.90;;
9208;SDS011;4639;48.862;9.188;2023-04-03T06:34:01;4.07;;;2.88;;
9208;SDS011;4639;48.862;9.188;2023-04-03T06:36:27;8.82;;;2.78;;
9208;SDS011;4639;48.862;9.188;2023-04-03T06:38:53;3.97;;;2.58;;
9208;SDS011;4639;48.862;9.188;2023-04-03T06:41:19;4.60;;;2.40;;
9208;SDS011;4639;48.862;9.188;2023-04-03T06:43:46;7.15;;;2.42;;
9208;SDS011;4639;48.862;9.188;2023-04-03T06:46:15;3.35;;;2.47;;
9208;SDS011;4639;48.862;9.188;2023-04-03T06:48:42;4.10;;;2.40;;
9208;SDS011;4639;48.862;9.188;2023-04-03T06:51:22;5.07;;;2.60;;
9208;SDS011;4639;48.862;9.188;2023-04-03T06:53:50;4.45;;;3.10;;
9208;SDS011;4639;48.862;9.188;2023-04-03T06:56:17;4.57;;;2.63;;
9208;SDS011;4639;48.862;9.188;2023-04-03T06:58:44;4.13;;;2.78;;
9208;SDS011;4639;48.862;9.188;2023-04-03T07:01:10;3.42;;;2.67;;
9208;SDS011;4639;48.862;9.188;2023-04-03T07:03:37;4.35;;;2.40;;
9208;SDS011;4639;48.862;9.188;2023-04-03T07:06:04;2.83;;;2.47;;
9208;SDS011;4639;48.862;9.188;2023-04-03T07:08:30;4.97;;;2.83;;
9208;SDS011;4639;48.862;9.188;2023-04-03T07:10:56;5.07;;;2.58;;
9208;SDS011;4639;48.862;9.188;2023-04-03T07:13:22;5.47;;;2.72;;
9208;SDS011;4639;48.862;9.188;2023-04-03T07:15:47;3.55;;;2.42;;
9208;SDS011;4639;48.862;9.188;2023-04-03T07:18:13;3.78;;;2.75;;
9208;SDS011;4639;48.862;9.188;2023-04-03T07:20:39;4.47;;;3.05;;
9208;SDS011;4639;48.862;9.188;2023-04-03T07:23:05;7.97;;;2.83;;
9208;SDS011;4639;48.862;9.188;2023-04-03T07:25:30;4.05;;;2.45;;
9208;SDS011;4639;48.862;9.188;2023-04-03T07:27:56;4.13;;;2.40;;
9208;SDS011;4639;48.862;9.188;2023-04-03T07:30:22;4.15;;;2.75;;
9208;SDS011;4639;48.862;9.188;2023-04-03T07:32:48;5.78;;;2.47;;
9208;SDS011;4639;48.862;9.188;2023-04-03T07:35:14;4.78;;;2.58;;
9208;SDS011;4639;48.862;9.188;2023-04-03T07:37:40;4.25;;;2.85;;
9208;SDS011;4639;48.862;9.188;2023-04-03T07:40:06;6.22;;;2.42;;
9208;SDS011;4639;48.862;9.188;2023-04-03T07:42:32;3.85;;;2.70;;
9208;SDS011;4639;48.862;9.188;2023-04-03T07:44:57;3.95;;;2.65;;
9208;SDS011;4639;48.862;9.188;2023-04-03T07:47:23;3.05;;;2.28;;
9208;SDS011;4639;48.862;9.188;2023-04-03T07:49:48;4.18;;;2.30;;
9208;SDS011;4639;48.862;9.188;2023-04-03T07:52:14;4.22;;;2.45;;
9208;SDS011;4639;48.862;9.188;2023-04-03T07:54:40;6.60;;;2.80;;
9208;SDS011;4639;48.862;9.188;2023-04-03T07:57:06;2.95;;;2.50;;
9208;SDS011;4639;48.862;9.188;2023-04-03T07:59:32;3.20;;;2.45;;
9208;SDS011;4639;48.862;9.188;2023-04-03T08:01:57;3.55;;;2.30;;
9208;SDS011;4639;48.862;9.188;2023-04-03T08:04:23;5.95;;;2.65;;
9208;SDS011;4639;48.862;9.188;2023-04-03T08:06:49;5.20;;;2.75;;
9208;SDS011;4639;48.862;9.188;2023-04-03T08:09:15;5.30;;;2.60;;
9208;SDS011;4639;48.862;9.188;2023-04-03T08:11:41;4.60;;;2.35;;
9208;SDS011;4639;48.862;9.188;2023-04-03T08:14:07;5.22;;;2.92;;
9208;SDS011;4639;48.862;9.188;2023-04-03T08:16:33;3.92;;;2.45;;
9208;SDS011;4639;48.862;9.188;2023-04-03T08:18:58;7.95;;;2.50;;
9208;SDS011;4639;48.862;9.188;2023-04-03T08:21:24;4.35;;;2.47;;
9208;SDS011;4639;48.862;9.188;2023-04-03T08:23:50;5.95;;;2.47;;
9208;SDS011;4639;48.862;9.188;2023-04-03T08:26:17;5.90;;;2.90;;
9208;SDS011;4639;48.862;9.188;2023-04-03T08:28:44;4.50;;;2.53;;
9208;SDS011;4639;48.862;9.188;2023-04-03T08:31:11;5.63;;;2.30;;
9208;SDS011;4639;48.862;9.188;2023-04-03T08:33:39;3.58;;;2.50;;
9208;SDS011;4639;48.862;9.188;2023-04-03T08:36:05;5.53;;;2.65;;
9208;SDS011;4639;48.862;9.188;2023-04-03T08:38:32;5.43;;;2.63;;
9208;SDS011;4639;48.862;9.188;2023-04-03T08:41:10;3.50;;;2.40;;
9208;SDS011;4639;48.862;9.188;2023-04-03T08:46:36;4.45;;;2.42;;
9208;SDS011;4639;48.862;9.188;2023-04-03T08:49:11;5.32;;;2.58;;
9208;SDS011;4639;48.862;9.188;2023-04-03T08:51:52;3.53;;;2.15;;
9208;SDS011;4639;48.862;9.188;2023-04-03T08:54:37;6.25;;;2.60;;
9208;SDS011;4639;48.862;9.188;2023-04-03T08:57:16;4.85;;;2.72;;
9208;SDS011;4639;48.862;9.188;2023-04-03T08:59:48;7.38;;;2.60;;
9208;SDS011;4639;48.862;9.188;2023-04-03T09:02:23;2.95;;;2.05;;
9208;SDS011;4639;48.862;9.188;2023-04-03T09:04:55;5.72;;;2.55;;
9208;SDS011;4639;48.862;9.188;2023-04-03T09:07:33;4.80;;;2.45;;
9208;SDS011;4639;48.862;9.188;2023-04-03T09:10:04;4.05;;;2.60;;
9208;SDS011;4639;48.862;9.188;2023-04-03T09:12:37;5.88;;;2.50;;
9208;SDS011;4639;48.862;9.188;2023-04-03T09:15:17;4.32;;;2.17;;
9208;SDS011;4639;48.862;9.188;2023-04-03T09:23:16;4.60;;;2.25;;
9208;SDS011;4639;48.862;9.188;2023-04-03T09:26:05;5.40;;;2.38;;
9208;SDS011;4639;48.862;9.188;2023-04-03T09:28:37;2.95;;;2.00;;
9208;SDS011;4639;48.862;9.188;2023-04-03T09:31:18;3.53;;;2.30;;
9208;SDS011;4639;48.862;9.188;2023-04-03T09:33:48;3.90;;;2.17;;
9208;SDS011;4639;48.862;9.188;2023-04-03T09:36:36;6.78;;;2.40;;
9208;SDS011;4639;48.862;9.188;2023-04-03T09:39:03;4.25;;;2.13;;
9208;SDS011;4639;48.862;9.188;2023-04-03T09:41:30;4.03;;;1.80;;
9208;SDS011;4639;48.862;9.188;2023-04-03T09:43:57;2.35;;;1.92;;
9208;SDS011;4639;48.862;9.188;2023-04-03T09:46:30;2.60;;;2.08;;
9208;SDS011;4639;48.862;9.188;2023-04-03T09:48:59;3.75;;;2.38;;
9208;SDS011;4639;48.862;9.188;2023-04-03T09:51:30;4.18;;;2.50;;
9208;SDS011;4639;48.862;9.188;2023-04-03T09:53:56;5.10;;;1.98;;
9208;SDS011;4639;48.862;9.188;2023-04-03T09:56:29;2.60;;;2.05;;
9208;SDS011;4639;48.862;9.188;2023-04-03T10:01:25;4.10;;;2.20;;
9208;SDS011;4639;48.862;9.188;2023-04-03T10:04:10;4.25;;;2.08;;
9208;SDS011;4639;48.862;9.188;2023-04-03T10:06:42;2.88;;;1.80;;
9208;SDS011;4639;48.862;9.188;2023-04-03T10:09:25;5.35;;;2.05;;
9208;SDS011;4639;48.862;9.188;2023-04-03T10:14:27;3.13;;;1.83;;
9208;SDS011;4639;48.862;9.188;2023-04-03T10:16:59;4.85;;;2.20;;
9208;SDS011;4639;48.862;9.188;2023-04-03T10:22:03;3.70;;;1.95;;
9208;SDS011;4639;48.862;9.188;2023-04-03T10:33:18;2.30;;;1.90;;
9208;SDS011;4639;48.862;9.188;2023-04-03T10:39:06;2.70;;;1.80;;
9208;SDS011;4639;48.862;9.188;2023-04-03T10:44:14;2.83;;;1.98;;
9208;SDS011;4639;48.862;9.188;2023-04-03T10:46:54;4.40;;;2.13;;
9208;SDS011;4639;48.862;9.188;2023-04-03T10:52:24;4.32;;;1.90;;
9208;SDS011;4639;48.862;9.188;2023-04-03T10:57:49;3.20;;;1.95;;
9208;SDS011;4639;48.862;9.188;2023-04-03T11:00:18;2.97;;;1.80;;
9208;SDS011;4639;48.862;9.188;2023-04-03T11:02:54;2.72;;;2.10;;
9208;SDS011;4639;48.862;9.188;2023-04-03T11:05:43;4.75;;;1.95;;
9208;SDS011;4639;48.862;9.188;2023-04-03T11:08:21;4.22;;;2.13;;
9208;SDS011;4639;48.862;9.188;2023-04-03T11:11:00;2.97;;;1.90;;
9208;SDS011;4639;48.862;9.188;2023-04-03T11:16:21;4.65;;;1.85;;
9208;SDS011;4639;48.862;9.188;2023-04-03T11:19:05;1.55;;;1.23;;
9208;SDS011;4639;48.862;9.188;2023-04-03T11:21:47;3.53;;;1.60;;
9208;SDS011;4639;48.862;9.188;2023-04-03T11:24:22;3.17;;;1.70;;
9208;SDS011;4639;48.862;9.188;2023-04-03T11:26:51;4.18;;;2.00;;
9208;SDS011;4639;48.862;9.188;2023-04-03T11:29:20;3.55;;;1.95;;
9208;SDS011;4639;48.862;9.188;2023-04-03T11:34:47;4.53;;;1.90;;
9208;SDS011;4639;48.862;9.188;2023-04-03T11:39:53;2.22;;;1.52;;
9208;SDS011;4639;48.862;9.188;2023-04-03T11:42:47;3.47;;;2.13;;
9208;SDS011;4639;48.862;9.188;2023-04-03T12:06:41;4.22;;;1.60;;
9208;SDS011;4639;48.862;9.188;2023-04-03T12:08:44;4.03;;;2.05;;
9208;SDS011;4639;48.862;9.188;2023-04-03T12:19:04;2.83;;;1.75;;
9208;SDS011;4639;48.862;9.188;2023-04-03T12:22:12;3.92;;;2.13;;
9208;SDS011;4639;48.862;9.188;2023-04-03T12:24:41;3.17;;;1.63;;
9208;SDS011;4639;48.862;9.188;2023-04-03T12:27:42;2.30;;;1.63;;
9208;SDS011;4639;48.862;9.188;2023-04-03T12:36:08;2.97;;;1.80;;
9208;SDS011;4639;48.862;9.188;2023-04-03T12:46:43;2.53;;;1.63;;
9208;SDS011;4639;48.862;9.188;2023-04-03T12:49:23;3.08;;;1.80;;
9208;SDS011;4639;48.862;9.188;2023-04-03T12:52:03;3.10;;;1.80;;
9208;SDS011;4639;48.862;9.188;2023-04-03T12:54:50;4.25;;;2.00;;
9208;SDS011;4639;48.862;9.188;2023-04-03T12:57:26;3.78;;;1.60;;
9208;SDS011;4639;48.862;9.188;2023-04-03T12:59:52;3.00;;;1.70;;
9208;SDS011;4639;48.862;9.188;2023-04-03T13:04:45;2.45;;;1.70;;
9208;SDS011;4639;48.862;9.188;2023-04-03T13:07:21;4.22;;;2.17;;
9208;SDS011;4639;48.862;9.188;2023-04-03T13:12:31;2.63;;;1.52;;
9208;SDS011;4639;48.862;9.188;2023-04-03T13:14:58;4.55;;;2.05;;
9208;SDS011;4639;48.862;9.188;2023-04-03T13:17:27;6.95;;;2.30;;
9208;SDS011;4639;48.862;9.188;2023-04-03T13:19:53;3.10;;;1.83;;
9208;SDS011;4639;48.862;9.188;2023-04-03T13:22:27;5.10;;;1.60;;
9208;SDS011;4639;48.862;9.188;2023-04-03T13:24:54;1.98;;;1.50;;
9208;SDS011;4639;48.862;9.188;2023-04-03T13:27:22;3.30;;;1.83;;
9208;SDS011;4639;48.862;9.188;2023-04-03T13:29:49;2.63;;;2.05;;
9208;SDS011;4639;48.862;9.188;2023-04-03T13:32:22;3.35;;;1.73;;
9208;SDS011;4639;48.862;9.188;2023-04-03T13:34:50;3.13;;;1.77;;
9208;SDS011;4639;48.862;9.188;2023-04-03T13:37:32;5.05;;;1.90;;
9208;SDS011;4639;48.862;9.188;2023-04-03T13:42:32;4.03;;;1.98;;
9208;SDS011;4639;48.862;9.188;2023-04-03T13:45:21;2.85;;;1.63;;
9208;SDS011;4639;48.862;9.188;2023-04-03T13:47:52;1.90;;;1.60;;
9208;SDS011;4639;48.862;9.188;2023-04-03T13:50:24;2.00;;;1.70;;
9208;SDS011;4639;48.862;9.188;2023-04-03T13:55:26;2.95;;;1.90;;
9208;SDS011;4639;48.862;9.188;2023-04-03T13:58:01;2.10;;;1.70;;
9208;SDS011;4639;48.862;9.188;2023-04-03T14:00:50;2.75;;;1.80;;
9208;SDS011;4639;48.862;9.188;2023-04-03T14:03:22;4.90;;;1.75;;
9208;SDS011;4639;48.862;9.188;2023-04-03T14:05:56;3.33;;;1.70;;
9208;SDS011;4639;48.862;9.188;2023-04-03T14:08:22;3.28;;;1.90;;
9208;SDS011;4639;48.862;9.188;2023-04-03T14:10:48;4.22;;;2.00;;
9208;SDS011;4639;48.862;9.188;2023-04-03T14:13:16;4.07;;;1.98;;
9208;SDS011;4639;48.862;9.188;2023-04-03T14:15:44;4.55;;;1.90;;
9208;SDS011;4639;48.862;9.188;2023-04-03T14:18:15;4.35;;;1.92;;
9208;SDS011;4639;48.862;9.188;2023-04-03T14:20:43;5.18;;;2.03;;
9208;SDS011;4639;48.862;9.188;2023-04-03T14:23:09;2.40;;;1.80;;
9208;SDS011;4639;48.862;9.188;2023-04-03T14:25:35;3.33;;;1.98;;
9208;SDS011;4639;48.862;9.188;2023-04-03T14:28:07;2.40;;;1.70;;
9208;SDS011;4639;48.862;9.188;2023-04-03T14:30:46;2.47;;;1.50;;
9208;SDS011;4639;48.862;9.188;2023-04-03T14:33:13;2.13;;;1.80;;
9208;SDS011;4639;48.862;9.188;2023-04-03T14:35:41;4.45;;;1.83;;
9208;SDS011;4639;48.862;9.188;2023-04-03T14:41:02;3.28;;;1.65;;
9208;SDS011;4639;48.862;9.188;2023-04-03T14:43:28;5.57;;;1.90;;
9208;SDS011;4639;48.862;9.188;2023-04-03T14:45:53;2.72;;;1.90;;
9208;SDS011;4639;48.862;9.188;2023-04-03T14:48:20;4.43;;;2.42;;
9208;SDS011;4639;48.862;9.188;2023-04-03T14:50:48;2.40;;;1.90;;
9208;SDS011;4639;48.862;9.188;2023-04-03T14:53:15;3.97;;;2.60;;
9208;SDS011;4639;48.862;9.188;2023-04-03T14:55:42;3.30;;;1.98;;
9208;SDS011;4639;48.862;9.188;2023-04-03T14:58:17;3.53;;;1.83;;
9208;SDS011;4639;48.862;9.188;2023-04-03T15:00:44;2.90;;;1.70;;
9208;SDS011;4639;48.862;9.188;2023-04-03T15:03:12;3.22;;;1.70;;
9208;SDS011;4639;48.862;9.188;2023-04-03T15:05:43;2.63;;;1.83;;
9208;SDS011;4639;48.862;9.188;2023-04-03T15:08:21;1.75;;;1.52;;
9208;SDS011;4639;48.862;9.188;2023-04-03T15:10:50;2.08;;;1.50;;
9208;SDS011;4639;48.862;9.188;2023-04-03T15:13:17;1.80;;;1.52;;
9208;SDS011;4639;48.862;9.188;2023-04-03T15:15:44;2.60;;;1.80;;
9208;SDS011;4639;48.862;9.188;2023-04-03T15:18:22;2.58;;;1.77;;
9208;SDS011;4639;48.862;9.188;2023-04-03T15:20:52;4.55;;;1.73;;
9208;SDS011;4639;48.862;9.188;2023-04-03T15:23:18;4.65;;;1.85;;
9208;SDS011;4639;48.862;9.188;2023-04-03T15:25:45;2.42;;;1.70;;
9208;SDS011;4639;48.862;9.188;2023-04-03T15:30:50;2.55;;;1.63;;
9208;SDS011;4639;48.862;9.188;2023-04-03T15:33:15;2.15;;;1.50;;
9208;SDS011;4639;48.862;9.188;2023-04-03T15:35:41;3.15;;;1.88;;
9208;SDS011;4639;48.862;9.188;2023-04-03T15:38:07;2.90;;;1.95;;
9208;SDS011;4639;48.862;9.188;2023-04-03T15:40:33;2.50;;;1.60;;
9208;SDS011;4639;48.862;9.188;2023-04-03T15:42:59;2.05;;;1.70;;
9208;SDS011;4639;48.862;9.188;2023-04-03T15:45:25;1.67;;;1.42;;
9208;SDS011;4639;48.862;9.188;2023-04-03T15:47:54;2.72;;;1.80;;
9208;SDS011;4639;48.862;9.188;2023-04-03T15:50:19;2.35;;;1.50;;
9208;SDS011;4639;48.862;9.188;2023-04-03T15:52:47;2.67;;;2.00;;
9208;SDS011;4639;48.862;9.188;2023-04-03T15:55:16;2.35;;;1.70;;
9208;SDS011;4639;48.862;9.188;2023-04-03T15:57:42;4.40;;;1.90;;
9208;SDS011;4639;48.862;9.188;2023-04-03T16:00:07;3.42;;;1.70;;
9208;SDS011;4639;48.862;9.188;2023-04-03T16:02:33;4.05;;;2.05;;
9208;SDS011;4639;48.862;9.188;2023-04-03T16:04:59;2.70;;;1.50;;
9208;SDS011;4639;48.862;9.188;2023-04-03T16:07:25;2.90;;;1.90;;
9208;SDS011;4639;48.862;9.188;2023-04-03T16:09:51;4.78;;;2.25;;
9208;SDS011;4639;48.862;9.188;2023-04-03T16:12:17;2.95;;;1.77;;
9208;SDS011;4639;48.862;9.188;2023-04-03T16:14:42;2.13;;;1.70;;
9208;SDS011;4639;48.862;9.188;2023-04-03T16:17:08;2.20;;;1.80;;
9208;SDS011;4639;48.862;9.188;2023-04-03T16:19:33;2.75;;;1.90;;
9208;SDS011;4639;48.862;9.188;2023-04-03T16:21:59;2.15;;;1.55;;
9208;SDS011;4639;48.862;9.188;2023-04-03T16:24:25;2.60;;;1.92;;
9208;SDS011;4639;48.862;9.188;2023-04-03T16:26:51;3.53;;;1.90;;
9208;SDS011;4639;48.862;9.188;2023-04-03T16:29:18;4.38;;;2.03;;
9208;SDS011;4639;48.862;9.188;2023-04-03T16:31:43;4.10;;;2.22;;
9208;SDS011;4639;48.862;9.188;2023-04-03T16:34:09;3.85;;;2.20;;
9208;SDS011;4639;48.862;9.188;2023-04-03T16:36:35;4.45;;;2.20;;
9208;SDS011;4639;48.862;9.188;2023-04-03T16:39:02;3.15;;;1.92;;
9208;SDS011;4639;48.862;9.188;2023-04-03T16:41:27;3.88;;;2.20;;
9208;SDS011;4639;48.862;9.188;2023-04-03T16:43:53;3.08;;;2.00;;
9208;SDS011;4639;48.862;9.188;2023-04-03T16:46:19;2.05;;;1.65;;
9208;SDS011;4639;48.862;9.188;2023-04-03T16:48:52;4.20;;;2.30;;
9208;SDS011;4639;48.862;9.188;2023-04-03T16:51:17;6.68;;;2.08;;
9208;SDS011;4639;48.862;9.188;2023-04-03T16:53:43;3.13;;;1.90;;
9208;SDS011;4639;48.862;9.188;2023-04-03T16:56:08;3.42;;;1.88;;
9208;SDS011;4639;48.862;9.188;2023-04-03T16:58:34;3.28;;;2.00;;
9208;SDS011;4639;48.862;9.188;2023-04-03T17:01:08;2.65;;;1.90;;
9208;SDS011;4639;48.862;9.188;2023-04-03T17:03:38;3.30;;;1.80;;
9208;SDS011;4639;48.862;9.188;2023-04-03T17:06:04;5.15;;;1.95;;
9208;SDS011;4639;48.862;9.188;2023-04-03T17:08:30;5.32;;;2.13;;
9208;SDS011;4639;48.862;9.188;2023-04-03T17:10:56;2.38;;;1.85;;
9208;SDS011;4639;48.862;9.188;2023-04-03T17:13:21;2.72;;;2.03;;
9208;SDS011;4639;48.862;9.188;2023-04-03T17:15:47;8.75;;;2.30;;
9208;SDS011;4639;48.862;9.188;2023-04-03T17:18:13;4.13;;;1.90;;